sensor_id;sensor_type;location;lat;lon;timestamp;temperature;humidity
24262;DHT22;12385;51.412;5.540;2023-04-29T03:41:47;10.40;99.90
24262;DHT22;12385;51.412;5.540;2023-04-29T03:44:12;10.40;99.90
24262;DHT22;12385;51.412;5.540;2023-04-29T03:46:41;10.40;99.90
24262;DHT22;12385;51.412;5.540;2023-04-29T03:49:06;10.40;99.90
24262;DHT22;12385;51.412;5.540;2023-04-29T03:51:32;10.50;99.90
24262;DHT22;12385;51.412;5.540;2023-04-29T03:53:58;10.40;99.90
24262;DHT22;12385;51.412;5.540;2023-04-29T03:56:24;10.40;99.90
24262;DHT22;12385;51.412;5.540;2023-04-29T03:58:51;10.50;99.90
24262;DHT22;12385;51.412;5.540;2023-04-29T04:01:16;10.50;99.90
24262;DHT22;12385;51.412;5.540;2023-04-29T04:03:42;10.50;99.90
24262;DHT22;12385;51.412;5.540;2023-04-29T04:06:08;10.50;99.90
24262;DHT22;12385;51.412;5.540;2023-04-29T04:08:34;10.50;99.90
24262;DHT22;12385;51.412;5.540;2023-04-29T04:10:59;10.50;99.90
24262;DHT22;12385;51.412;5.540;2023-04-29T04:13:30;10.50;99.90
24262;DHT22;12385;51.412;5.540;2023-04-29T04:15:56;10.60;99.90
24262;DHT22;12385;51.412;5.540;2023-04-29T04:18:22;10.50;99.90
24262;DHT22;12385;51.412;5.540;2023-04-29T04:20:48;10.50;99.90
24262;DHT22;12385;51.412;5.540;2023-04-29T04:23:14;10.50;99.90
24262;DHT22;12385;51.412;5.540;2023-04-29T04:25:47;10.50;99.90
24262;DHT22;12385;51.412;5.540;2023-04-29T04:28:13;10.50;99.90
24262;DHT22;12385;51.412;5.540;2023-04-29T04:30:40;10.50;99.90
24262;DHT22;12385;51.412;5.540;2023-04-29T04:33:06;10.50;99.90
24262;DHT22;12385;51.412;5.540;2023-04-29T04:35:31;10.50;99.90
24262;DHT22;12385;51.412;5.540;2023-04-29T04:37:57;10.40;99.90
24262;DHT22;12385;51.412;5.540;2023-04-29T04:40:23;10.50;99.90
24262;DHT22;12385;51.412;5.540;2023-04-29T06:07:51;10.50;99.90
24262;DHT22;12385;51.412;5.540;2023-04-29T06:10:16;10.50;99.90
24262;DHT22;12385;51.412;5.540;2023-04-29T06:12:43;10.50;99.90
24262;DHT22;12385;51.412;5.540;2023-04-29T06:15:29;10.50;99.90
24262;DHT22;12385;51.412;5.540;2023-04-29T06:18:00;10.60;99.90
24262;DHT22;12385;51.412;5.540;2023-04-29T06:20:26;10.60;99.90
24262;DHT22;12385;51.412;5.540;2023-04-29T06:23:02;10.50;99.90
24262;DHT22;12385;51.412;5.540;2023-04-29T06:25:30;10.60;99.90
24262;DHT22;12385;51.412;5.540;2023-04-29T06:27:57;10.60;99.90
24262;DHT22;12385;51.412;5.540;2023-04-29T06:30:43;10.60;99.90
24262;DHT22;12385;51.412;5.540;2023-04-29T06:33:29;10.70;99.90
24262;DHT22;12385;51.412;5.540;2023-04-29T06:35:56;10.70;99.90
24262;DHT22;12385;51.412;5.540;2023-04-29T06:38:22;10.60;99.90
24262;DHT22;12385;51.412;5.540;2023-04-29T06:40:48;10.60;99.90
24262;DHT22;12385;51.412;5.540;2023-04-29T06:43:13;10.60;99.90
24262;DHT22;12385;51.412;5.540;2023-04-29T06:45:51;10.60;99.90
24262;DHT22;12385;51.412;5.540;2023-04-29T06:48:17;10.70;99.90
24262;DHT22;12385;51.412;5.540;2023-04-29T06:50:51;10.70;99.90
24262;DHT22;12385;51.412;5.540;2023-04-29T06:53:25;10.70;99.90
24262;DHT22;12385;51.412;5.540;2023-04-29T06:55:51;10.70;99.90
24262;DHT22;12385;51.412;5.540;2023-04-29T06:58:18;10.70;99.90
24262;DHT22;12385;51.412;5.540;2023-04-29T07:00:46;10.70;99.90
24262;DHT22;12385;51.412;5.540;2023-04-29T07:03:13;10.80;99.90
24262;DHT22;12385;51.412;5.540;2023-04-29T07:05:39;10.80;99.90
24262;DHT22;12385;51.412;5.540;2023-04-29T07:08:07;10.80;99.90
24262;DHT22;12385;51.412;5.540;2023-04-29T07:10:34;10.80;99.90
24262;DHT22;12385;51.412;5.540;2023-04-29T07:13:00;10.80;99.90
24262;DHT22;12385;51.412;5.540;2023-04-29T07:15:27;10.80;99.90
24262;DHT22;12385;51.412;5.540;2023-04-29T07:17:58;10.80;99.90
24262;DHT22;12385;51.412;5.540;2023-04-29T07:20:27;10.80;99.90
24262;DHT22;12385;51.412;5.540;2023-04-29T07:22:53;10.80;99.90
24262;DHT22;12385;51.412;5.540;2023-04-29T07:25:20;10.90;99.90
24262;DHT22;12385;51.412;5.540;2023-04-29T07:27:45;10.90;99.90
24262;DHT22;12385;51.412;5.540;2023-04-29T07:30:19;11.00;99.90
24262;DHT22;12385;51.412;5.540;2023-04-29T07:32:44;11.10;99.90
24262;DHT22;12385;51.412;5.540;2023-04-29T07:35:14;11.20;99.90
24262;DHT22;12385;51.412;5.540;2023-04-29T07:37:43;11.30;99.90
24262;DHT22;12385;51.412;5.540;2023-04-29T07:40:11;11.40;99.90
24262;DHT22;12385;51.412;5.540;2023-04-29T07:42:37;11.50;99.90
24262;DHT22;12385;51.412;5.540;2023-04-29T07:45:04;11.50;99.90
24262;DHT22;12385;51.412;5.540;2023-04-29T07:47:30;11.60;99.90
24262;DHT22;12385;51.412;5.540;2023-04-29T07:49:56;11.60;99.90
24262;DHT22;12385;51.412;5.540;2023-04-29T07:52:23;11.60;99.90
24262;DHT22;12385;51.412;5.540;2023-04-29T07:54:54;11.70;99.90
24262;DHT22;12385;51.412;5.540;2023-04-29T07:57:20;11.80;99.90
24262;DHT22;12385;51.412;5.540;2023-04-29T07:59:53;11.80;99.90
24262;DHT22;12385;51.412;5.540;2023-04-29T08:02:19;11.80;99.90
24262;DHT22;12385;51.412;5.540;2023-04-29T08:04:46;11.80;99.90
24262;DHT22;12385;51.412;5.540;2023-04-29T08:07:11;11.90;99.90
24262;DHT22;12385;51.412;5.540;2023-04-29T08:09:37;12.00;99.90
24262;DHT22;12385;51.412;5.540;2023-04-29T08:12:03;12.00;99.90
24262;DHT22;12385;51.412;5.540;2023-04-29T08:14:29;12.10;99.90
24262;DHT22;12385;51.412;5.540;2023-04-29T08:16:55;12.20;99.90
24262;DHT22;12385;51.412;5.540;2023-04-29T08:19:21;12.20;99.90
24262;DHT22;12385;51.412;5.540;2023-04-29T08:21:47;12.20;99.90
24262;DHT22;12385;51.412;5.540;2023-04-29T08:24:13;12.20;99.90
24262;DHT22;12385;51.412;5.540;2023-04-29T08:26:39;12.10;99.90
24262;DHT22;12385;51.412;5.540;2023-04-29T08:29:05;12.10;99.90
24262;DHT22;12385;51.412;5.540;2023-04-29T08:31:31;12.10;99.90
24262;DHT22;12385;51.412;5.540;2023-04-29T08:33:57;12.20;99.90
24262;DHT22;12385;51.412;5.540;2023-04-29T08:36:23;12.30;99.90
24262;DHT22;12385;51.412;5.540;2023-04-29T08:38:48;12.30;99.90
24262;DHT22;12385;51.412;5.540;2023-04-29T08:41:17;12.40;99.90
24262;DHT22;12385;51.412;5.540;2023-04-29T08:43:43;12.50;99.90
24262;DHT22;12385;51.412;5.540;2023-04-29T08:46:09;12.60;99.90
24262;DHT22;12385;51.412;5.540;2023-04-29T08:48:37;12.70;99.90
24262;DHT22;12385;51.412;5.540;2023-04-29T08:51:04;12.80;99.90
24262;DHT22;12385;51.412;5.540;2023-04-29T08:53:30;12.90;99.90
24262;DHT22;12385;51.412;5.540;2023-04-29T08:55:57;12.90;99.90
24262;DHT22;12385;51.412;5.540;2023-04-29T08:58:25;12.90;99.90
24262;DHT22;12385;51.412;5.540;2023-04-29T09:00:52;12.90;99.90
24262;DHT22;12385;51.412;5.540;2023-04-29T09:03:24;12.80;99.90
24262;DHT22;12385;51.412;5.540;2023-04-29T09:05:56;12.90;99.90
24262;DHT22;12385;51.412;5.540;2023-04-29T09:08:23;13.00;99.90
24262;DHT22;12385;51.412;5.540;2023-04-29T09:10:51;13.10;99.90
24262;DHT22;12385;51.412;5.540;2023-04-29T09:13:29;13.20;99.90
24262;DHT22;12385;51.412;5.540;2023-04-29T09:15:55;13.30;99.90
24262;DHT22;12385;51.412;5.540;2023-04-29T09:23:37;13.60;99.90
24262;DHT22;12385;51.412;5.540;2023-04-29T09:26:03;13.70;99.90
24262;DHT22;12385;51.412;5.540;2023-04-29T09:28:29;13.80;99.90
24262;DHT22;12385;51.412;5.540;2023-04-29T09:30:54;13.90;99.90
24262;DHT22;12385;51.412;5.540;2023-04-29T09:33:21;14.00;99.90
24262;DHT22;12385;51.412;5.540;2023-04-29T09:35:46;14.00;99.90
24262;DHT22;12385;51.412;5.540;2023-04-29T09:38:14;14.10;99.90
24262;DHT22;12385;51.412;5.540;2023-04-29T09:40:42;14.20;99.90
24262;DHT22;12385;51.412;5.540;2023-04-29T09:43:13;14.20;99.90
24262;DHT22;12385;51.412;5.540;2023-04-29T09:45:41;14.40;99.90
24262;DHT22;12385;51.412;5.540;2023-04-29T09:48:08;14.40;99.90
24262;DHT22;12385;51.412;5.540;2023-04-29T09:50:35;14.50;99.90
24262;DHT22;12385;51.412;5.540;2023-04-29T09:53:05;14.50;99.90
24262;DHT22;12385;51.412;5.540;2023-04-29T09:58:31;14.50;99.90
24262;DHT22;12385;51.412;5.540;2023-04-29T10:01:03;14.50;99.90
24262;DHT22;12385;51.412;5.540;2023-04-29T10:03:34;14.50;99.90
24262;DHT22;12385;51.412;5.540;2023-04-29T10:06:03;14.60;99.90
24262;DHT22;12385;51.412;5.540;2023-04-29T10:08:45;14.60;99.90
24262;DHT22;12385;51.412;5.540;2023-04-29T10:11:12;14.80;99.90
24262;DHT22;12385;51.412;5.540;2023-04-29T10:13:41;14.90;99.90
24262;DHT22;12385;51.412;5.540;2023-04-29T10:16:27;15.00;99.90
24262;DHT22;12385;51.412;5.540;2023-04-29T10:25:00;15.10;99.90
24262;DHT22;12385;51.412;5.540;2023-04-29T10:27:29;15.20;99.90
24262;DHT22;12385;51.412;5.540;2023-04-29T10:29:58;15.30;99.90
24262;DHT22;12385;51.412;5.540;2023-04-29T10:32:26;15.40;99.90
24262;DHT22;12385;51.412;5.540;2023-04-29T10:34:53;15.30;99.90
24262;DHT22;12385;51.412;5.540;2023-04-29T10:37:22;15.20;99.90
24262;DHT22;12385;51.412;5.540;2023-04-29T10:40:00;15.20;99.90
24262;DHT22;12385;51.412;5.540;2023-04-29T10:42:43;15.10;99.90
24262;DHT22;12385;51.412;5.540;2023-04-29T10:45:21;15.20;99.90
24262;DHT22;12385;51.412;5.540;2023-04-29T10:53:24;15.60;99.90
24262;DHT22;12385;51.412;5.540;2023-04-29T10:55:57;15.80;99.90
24262;DHT22;12385;51.412;5.540;2023-04-29T11:01:02;16.30;99.90
24262;DHT22;12385;51.412;5.540;2023-04-29T11:06:21;16.30;99.90
24262;DHT22;12385;51.412;5.540;2023-04-29T11:09:00;16.30;99.90
24262;DHT22;12385;51.412;5.540;2023-04-29T11:11:45;16.30;99.90
24262;DHT22;12385;51.412;5.540;2023-04-29T11:14:14;16.10;99.90
24262;DHT22;12385;51.412;5.540;2023-04-29T11:16:55;16.00;99.90
24262;DHT22;12385;51.412;5.540;2023-04-29T11:19:23;15.90;99.90
24262;DHT22;12385;51.412;5.540;2023-04-29T11:22:03;15.70;99.90
24262;DHT22;12385;51.412;5.540;2023-04-29T11:24:33;15.60;99.90
24262;DHT22;12385;51.412;5.540;2023-04-29T11:27:02;15.60;99.90
24262;DHT22;12385;51.412;5.540;2023-04-29T11:29:31;15.60;99.90
24262;DHT22;12385;51.412;5.540;2023-04-29T11:31:59;15.70;99.90
24262;DHT22;12385;51.412;5.540;2023-04-29T11:34:24;15.60;99.90
24262;DHT22;12385;51.412;5.540;2023-04-29T11:36:56;15.60;99.90
24262;DHT22;12385;51.412;5.540;2023-04-29T11:39:22;15.60;99.90
24262;DHT22;12385;51.412;5.540;2023-04-29T11:41:48;15.60;99.90
24262;DHT22;12385;51.412;5.540;2023-04-29T11:44:20;15.60;99.90
24262;DHT22;12385;51.412;5.540;2023-04-29T11:46:47;15.70;99.90
24262;DHT22;12385;51.412;5.540;2023-04-29T11:49:14;15.70;99.90
24262;DHT22;12385;51.412;5.540;2023-04-29T11:51:39;15.70;99.90
24262;DHT22;12385;51.412;5.540;2023-04-29T11:54:06;15.70;99.90
24262;DHT22;12385;51.412;5.540;2023-04-29T11:56:31;15.70;99.90
24262;DHT22;12385;51.412;5.540;2023-04-29T11:58:57;15.60;99.90
24262;DHT22;12385;51.412;5.540;2023-04-29T12:01:24;15.60;99.90
24262;DHT22;12385;51.412;5.540;2023-04-29T12:03:50;15.50;99.90
24262;DHT22;12385;51.412;5.540;2023-04-29T12:06:16;15.50;99.90
24262;DHT22;12385;51.412;5.540;2023-04-29T12:08:42;15.40;99.90
24262;DHT22;12385;51.412;5.540;2023-04-29T12:11:11;15.40;99.90
24262;DHT22;12385;51.412;5.540;2023-04-29T12:13:36;15.30;99.90
24262;DHT22;12385;51.412;5.540;2023-04-29T12:16:03;15.30;99.90
24262;DHT22;12385;51.412;5.540;2023-04-29T12:18:29;15.30;99.90
24262;DHT22;12385;51.412;5.540;2023-04-29T12:20:55;15.40;99.90
24262;DHT22;12385;51.412;5.540;2023-04-29T12:23:24;15.50;99.90
24262;DHT22;12385;51.412;5.540;2023-04-29T12:25:57;15.50;99.90
24262;DHT22;12385;51.412;5.540;2023-04-29T12:28:24;15.70;99.90
24262;DHT22;12385;51.412;5.540;2023-04-29T12:30:52;15.80;99.90
24262;DHT22;12385;51.412;5.540;2023-04-29T12:33:22;16.00;99.90
24262;DHT22;12385;51.412;5.540;2023-04-29T12:35:56;16.10;99.90
24262;DHT22;12385;51.412;5.540;2023-04-29T12:38:29;16.30;99.90
24262;DHT22;12385;51.412;5.540;2023-04-29T12:40:59;16.50;99.90
24262;DHT22;12385;51.412;5.540;2023-04-29T12:43:29;16.60;99.90
24262;DHT22;12385;51.412;5.540;2023-04-29T12:46:02;16.70;99.90
24262;DHT22;12385;51.412;5.540;2023-04-29T12:48:31;16.80;99.90
24262;DHT22;12385;51.412;5.540;2023-04-29T12:50:58;16.90;99.90
24262;DHT22;12385;51.412;5.540;2023-04-29T12:53:25;17.10;99.90
24262;DHT22;12385;51.412;5.540;2023-04-29T12:55:52;17.20;99.90
24262;DHT22;12385;51.412;5.540;2023-04-29T12:58:18;17.30;99.90
24262;DHT22;12385;51.412;5.540;2023-04-29T13:00:43;17.40;99.90
24262;DHT22;12385;51.412;5.540;2023-04-29T13:03:09;17.50;99.90
24262;DHT22;12385;51.412;5.540;2023-04-29T13:05:35;17.50;99.90
24262;DHT22;12385;51.412;5.540;2023-04-29T13:08:04;17.40;99.90
24262;DHT22;12385;51.412;5.540;2023-04-29T13:10:33;17.30;99.90
24262;DHT22;12385;51.412;5.540;2023-04-29T13:12:59;17.30;99.90
24262;DHT22;12385;51.412;5.540;2023-04-29T13:15:26;17.30;99.90
24262;DHT22;12385;51.412;5.540;2023-04-29T13:17:52;17.30;99.90
24262;DHT22;12385;51.412;5.540;2023-04-29T13:20:17;17.30;99.90
24262;DHT22;12385;51.412;5.540;2023-04-29T13:22:44;17.30;99.90
24262;DHT22;12385;51.412;5.540;2023-04-29T13:25:12;17.40;99.90
24262;DHT22;12385;51.412;5.540;2023-04-29T13:27:39;17.40;99.90
24262;DHT22;12385;51.412;5.540;2023-04-29T13:30:07;17.30;99.90
24262;DHT22;12385;51.412;5.540;2023-04-29T13:32:33;17.30;99.90
24262;DHT22;12385;51.412;5.540;2023-04-29T13:34:59;17.40;99.90
24262;DHT22;12385;51.412;5.540;2023-04-29T13:37:25;17.50;99.90
24262;DHT22;12385;51.412;5.540;2023-04-29T13:39:50;17.60;99.90
24262;DHT22;12385;51.412;5.540;2023-04-29T13:42:16;17.70;99.90
24262;DHT22;12385;51.412;5.540;2023-04-29T13:44:42;17.80;99.90
24262;DHT22;12385;51.412;5.540;2023-04-29T13:47:14;17.90;99.90
24262;DHT22;12385;51.412;5.540;2023-04-29T13:49:41;18.10;99.90
24262;DHT22;12385;51.412;5.540;2023-04-29T13:52:09;18.30;99.90
24262;DHT22;12385;51.412;5.540;2023-04-29T13:54:35;18.50;99.90
24262;DHT22;12385;51.412;5.540;2023-04-29T13:57:01;18.60;99.90
24262;DHT22;12385;51.412;5.540;2023-04-29T13:59:33;18.70;99.90
24262;DHT22;12385;51.412;5.540;2023-04-29T14:01:59;18.70;99.90
24262;DHT22;12385;51.412;5.540;2023-04-29T14:04:26;18.70;99.90
24262;DHT22;12385;51.412;5.540;2023-04-29T14:06:53;18.70;99.90
24262;DHT22;12385;51.412;5.540;2023-04-29T14:09:19;18.60;99.90
24262;DHT22;12385;51.412;5.540;2023-04-29T14:11:45;18.60;99.90
24262;DHT22;12385;51.412;5.540;2023-04-29T14:14:11;18.50;99.90
24262;DHT22;12385;51.412;5.540;2023-04-29T14:16:37;18.40;99.90
24262;DHT22;12385;51.412;5.540;2023-04-29T14:19:05;18.40;99.90
24262;DHT22;12385;51.412;5.540;2023-04-29T14:21:30;18.40;99.90
24262;DHT22;12385;51.412;5.540;2023-04-29T14:24:01;18.40;99.90
24262;DHT22;12385;51.412;5.540;2023-04-29T14:26:29;18.30;99.90
24262;DHT22;12385;51.412;5.540;2023-04-29T14:28:55;18.20;99.90
24262;DHT22;12385;51.412;5.540;2023-04-29T14:31:29;18.20;99.90
24262;DHT22;12385;51.412;5.540;2023-04-29T14:33:56;18.10;99.90
24262;DHT22;12385;51.412;5.540;2023-04-29T14:36:22;18.10;99.90
24262;DHT22;12385;51.412;5.540;2023-04-29T14:38:48;18.20;99.90
24262;DHT22;12385;51.412;5.540;2023-04-29T14:41:14;18.20;99.90
24262;DHT22;12385;51.412;5.540;2023-04-29T14:43:40;18.30;99.90
24262;DHT22;12385;51.412;5.540;2023-04-29T14:46:07;18.30;99.90
24262;DHT22;12385;51.412;5.540;2023-04-29T14:48:32;18.30;99.90
24262;DHT22;12385;51.412;5.540;2023-04-29T14:50:58;18.30;99.90
24262;DHT22;12385;51.412;5.540;2023-04-29T14:53:23;18.30;99.90
24262;DHT22;12385;51.412;5.540;2023-04-29T14:55:49;18.30;99.90
24262;DHT22;12385;51.412;5.540;2023-04-29T14:58:15;18.30;99.90
24262;DHT22;12385;51.412;5.540;2023-04-29T15:00:41;18.20;99.90
24262;DHT22;12385;51.412;5.540;2023-04-29T15:03:07;18.20;99.90
24262;DHT22;12385;51.412;5.540;2023-04-29T15:05:32;18.10;99.90
24262;DHT22;12385;51.412;5.540;2023-04-29T15:07:58;18.10;99.90
24262;DHT22;12385;51.412;5.540;2023-04-29T15:10:26;18.00;99.90
24262;DHT22;12385;51.412;5.540;2023-04-29T15:12:51;17.90;99.90
24262;DHT22;12385;51.412;5.540;2023-04-29T15:15:18;17.80;99.90
24262;DHT22;12385;51.412;5.540;2023-04-29T15:17:43;17.70;99.90
24262;DHT22;12385;51.412;5.540;2023-04-29T15:20:09;17.60;99.90
24262;DHT22;12385;51.412;5.540;2023-04-29T15:22:53;17.60;99.90
24262;DHT22;12385;51.412;5.540;2023-04-29T15:25:19;17.60;99.90
24262;DHT22;12385;51.412;5.540;2023-04-29T15:27:45;17.60;99.90
24262;DHT22;12385;51.412;5.540;2023-04-29T15:30:12;17.70;99.90
24262;DHT22;12385;51.412;5.540;2023-04-29T15:32:38;17.70;99.90
24262;DHT22;12385;51.412;5.540;2023-04-29T15:35:03;17.60;99.90
24262;DHT22;12385;51.412;5.540;2023-04-29T15:37:31;17.60;99.90
24262;DHT22;12385;51.412;5.540;2023-04-29T15:39:58;17.60;99.90
24262;DHT22;12385;51.412;5.540;2023-04-29T15:42:24;17.70;99.90
24262;DHT22;12385;51.412;5.540;2023-04-29T15:44:51;17.80;99.90
24262;DHT22;12385;51.412;5.540;2023-04-29T15:47:17;17.90;99.90
24262;DHT22;12385;51.412;5.540;2023-04-29T15:49:42;18.10;99.90
24262;DHT22;12385;51.412;5.540;2023-04-29T15:52:08;18.20;99.90
24262;DHT22;12385;51.412;5.540;2023-04-29T15:54:34;18.50;99.90
24262;DHT22;12385;51.412;5.540;2023-04-29T15:57:00;18.80;99.70
24262;DHT22;12385;51.412;5.540;2023-04-29T15:59:28;18.90;98.60
24262;DHT22;12385;51.412;5.540;2023-04-29T16:01:54;18.90;98.50
24262;DHT22;12385;51.412;5.540;2023-04-29T16:04:19;18.80;98.40
24262;DHT22;12385;51.412;5.540;2023-04-29T16:06:47;18.70;98.40
24262;DHT22;12385;51.412;5.540;2023-04-29T16:09:13;18.60;98.60
24262;DHT22;12385;51.412;5.540;2023-04-29T16:11:39;18.50;98.60
24262;DHT22;12385;51.412;5.540;2023-04-29T16:14:05;18.50;98.50
24262;DHT22;12385;51.412;5.540;2023-04-29T16:16:31;18.40;98.60
24262;DHT22;12385;51.412;5.540;2023-04-29T16:18:56;18.40;98.80
24262;DHT22;12385;51.412;5.540;2023-04-29T16:21:22;18.30;99.00
24262;DHT22;12385;51.412;5.540;2023-04-29T16:23:49;18.40;98.30
24262;DHT22;12385;51.412;5.540;2023-04-29T16:26:16;18.50;98.50
24262;DHT22;12385;51.412;5.540;2023-04-29T16:28:41;18.60;98.20
24262;DHT22;12385;51.412;5.540;2023-04-29T16:31:08;18.60;98.10
24262;DHT22;12385;51.412;5.540;2023-04-29T16:33:34;18.60;98.10
24262;DHT22;12385;51.412;5.540;2023-04-29T16:35:59;18.50;97.70
24262;DHT22;12385;51.412;5.540;2023-04-29T16:38:25;18.40;97.60
24262;DHT22;12385;51.412;5.540;2023-04-29T16:40:51;18.40;98.00
24262;DHT22;12385;51.412;5.540;2023-04-29T16:43:17;18.30;98.20
24262;DHT22;12385;51.412;5.540;2023-04-29T16:45:43;18.30;97.90
24262;DHT22;12385;51.412;5.540;2023-04-29T16:48:09;18.20;97.50
24262;DHT22;12385;51.412;5.540;2023-04-29T16:50:35;18.10;97.30
24262;DHT22;12385;51.412;5.540;2023-04-29T16:53:03;18.00;97.70
24262;DHT22;12385;51.412;5.540;2023-04-29T16:55:29;17.90;98.00
24262;DHT22;12385;51.412;5.540;2023-04-29T16:57:55;17.80;98.40
24262;DHT22;12385;51.412;5.540;2023-04-29T17:00:21;17.70;99.00
24262;DHT22;12385;51.412;5.540;2023-04-29T17:02:47;17.60;98.50
24262;DHT22;12385;51.412;5.540;2023-04-29T17:05:14;17.60;99.40
24262;DHT22;12385;51.412;5.540;2023-04-29T17:07:40;17.50;99.40
24262;DHT22;12385;51.412;5.540;2023-04-29T17:10:07;17.50;99.50
24262;DHT22;12385;51.412;5.540;2023-04-29T17:12:33;17.50;99.40
24262;DHT22;12385;51.412;5.540;2023-04-29T17:14:58;17.30;99.50
24262;DHT22;12385;51.412;5.540;2023-04-29T17:17:24;17.30;99.90
24262;DHT22;12385;51.412;5.540;2023-04-29T17:19:50;17.30;99.90
24262;DHT22;12385;51.412;5.540;2023-04-29T17:22:30;17.30;99.90
24262;DHT22;12385;51.412;5.540;2023-04-29T17:24:57;17.20;99.90
24262;DHT22;12385;51.412;5.540;2023-04-29T17:27:22;17.20;99.90
24262;DHT22;12385;51.412;5.540;2023-04-29T17:29:48;17.20;99.90
24262;DHT22;12385;51.412;5.540;2023-04-29T17:32:13;17.10;99.90
24262;DHT22;12385;51.412;5.540;2023-04-29T17:34:42;17.10;99.90
24262;DHT22;12385;51.412;5.540;2023-04-29T17:37:08;17.10;99.90
24262;DHT22;12385;51.412;5.540;2023-04-29T17:39:34;17.10;99.90
24262;DHT22;12385;51.412;5.540;2023-04-29T17:41:59;17.00;99.90
24262;DHT22;12385;51.412;5.540;2023-04-29T17:44:26;16.90;99.90
24262;DHT22;12385;51.412;5.540;2023-04-29T17:46:53;16.80;99.90
24262;DHT22;12385;51.412;5.540;2023-04-29T17:49:18;16.80;99.90
24262;DHT22;12385;51.412;5.540;2023-04-29T17:51:44;16.70;99.90
24262;DHT22;12385;51.412;5.540;2023-04-29T17:54:10;16.60;99.90
24262;DHT22;12385;51.412;5.540;2023-04-29T17:56:35;16.60;99.90
24262;DHT22;12385;51.412;5.540;2023-04-29T17:59:05;16.50;99.90
24262;DHT22;12385;51.412;5.540;2023-04-29T18:01:33;16.50;99.90
24262;DHT22;12385;51.412;5.540;2023-04-29T18:03:59;16.40;99.90
24262;DHT22;12385;51.412;5.540;2023-04-29T18:06:26;16.30;99.90
24262;DHT22;12385;51.412;5.540;2023-04-29T18:08:53;16.30;99.90
24262;DHT22;12385;51.412;5.540;2023-04-29T18:11:20;16.30;99.90
24262;DHT22;12385;51.412;5.540;2023-04-29T18:13:46;16.30;99.90
24262;DHT22;12385;51.412;5.540;2023-04-29T18:16:12;16.20;99.90
24262;DHT22;12385;51.412;5.540;2023-04-29T18:18:37;16.20;99.90
24262;DHT22;12385;51.412;5.540;2023-04-29T18:21:03;16.20;99.90
24262;DHT22;12385;51.412;5.540;2023-04-29T18:23:29;16.20;99.90
24262;DHT22;12385;51.412;5.540;2023-04-29T18:25:56;16.20;99.90
24262;DHT22;12385;51.412;5.540;2023-04-29T18:28:22;16.20;99.90
24262;DHT22;12385;51.412;5.540;2023-04-29T18:30:48;16.20;99.90
24262;DHT22;12385;51.412;5.540;2023-04-29T18:33:14;16.20;99.90
24262;DHT22;12385;51.412;5.540;2023-04-29T18:35:41;16.20;99.90
24262;DHT22;12385;51.412;5.540;2023-04-29T18:38:07;16.20;99.90
24262;DHT22;12385;51.412;5.540;2023-04-29T18:40:39;16.20;99.90
24262;DHT22;12385;51.412;5.540;2023-04-29T18:43:04;16.20;99.90
24262;DHT22;12385;51.412;5.540;2023-04-29T18:45:30;16.20;99.90
24262;DHT22;12385;51.412;5.540;2023-04-29T18:47:56;16.20;99.90
24262;DHT22;12385;51.412;5.540;2023-04-29T18:50:22;16.20;99.90
24262;DHT22;12385;51.412;5.540;2023-04-29T18:52:48;16.20;99.90
24262;DHT22;12385;51.412;5.540;2023-04-29T18:55:13;16.10;99.90
24262;DHT22;12385;51.412;5.540;2023-04-29T18:57:39;16.00;99.90
24262;DHT22;12385;51.412;5.540;2023-04-29T19:00:05;16.00;99.90
24262;DHT22;12385;51.412;5.540;2023-04-29T19:02:33;15.90;99.90
24262;DHT22;12385;51.412;5.540;2023-04-29T19:04:58;15.80;99.90
24262;DHT22;12385;51.412;5.540;2023-04-29T19:07:30;15.80;99.90
24262;DHT22;12385;51.412;5.540;2023-04-29T19:09:55;15.80;99.90
24262;DHT22;12385;51.412;5.540;2023-04-29T19:12:21;15.80;99.90
24262;DHT22;12385;51.412;5.540;2023-04-29T19:14:48;15.80;99.90
24262;DHT22;12385;51.412;5.540;2023-04-29T19:17:14;15.80;99.90
24262;DHT22;12385;51.412;5.540;2023-04-29T19:19:40;15.80;99.90
24262;DHT22;12385;51.412;5.540;2023-04-29T19:22:06;15.80;99.90
24262;DHT22;12385;51.412;5.540;2023-04-29T19:24:32;15.80;99.90
24262;DHT22;12385;51.412;5.540;2023-04-29T19:26:59;15.70;99.90
24262;DHT22;12385;51.412;5.540;2023-04-29T19:29:26;15.70;99.90
24262;DHT22;12385;51.412;5.540;2023-04-29T19:31:51;15.70;99.90
24262;DHT22;12385;51.412;5.540;2023-04-29T19:34:17;15.60;99.90
24262;DHT22;12385;51.412;5.540;2023-04-29T19:36:42;15.60;99.90
24262;DHT22;12385;51.412;5.540;2023-04-29T19:39:09;15.60;99.90
24262;DHT22;12385;51.412;5.540;2023-04-29T19:41:35;15.60;99.90
24262;DHT22;12385;51.412;5.540;2023-04-29T19:44:01;15.50;99.90
24262;DHT22;12385;51.412;5.540;2023-04-29T19:46:26;15.30;99.90
24262;DHT22;12385;51.412;5.540;2023-04-29T19:48:52;15.30;99.90
24262;DHT22;12385;51.412;5.540;2023-04-29T19:51:18;15.10;99.90
24262;DHT22;12385;51.412;5.540;2023-04-29T19:53:43;15.00;99.90
24262;DHT22;12385;51.412;5.540;2023-04-29T19:56:09;15.00;99.90
24262;DHT22;12385;51.412;5.540;2023-04-29T19:59:02;14.80;99.90
24262;DHT22;12385;51.412;5.540;2023-04-29T20:01:28;14.80;99.90
24262;DHT22;12385;51.412;5.540;2023-04-29T20:03:58;14.70;99.90
24262;DHT22;12385;51.412;5.540;2023-04-29T20:06:23;14.60;99.90
24262;DHT22;12385;51.412;5.540;2023-04-29T20:08:51;14.60;99.90
24262;DHT22;12385;51.412;5.540;2023-04-29T20:11:16;14.50;99.90
24262;DHT22;12385;51.412;5.540;2023-04-29T20:13:42;14.50;99.90
24262;DHT22;12385;51.412;5.540;2023-04-29T20:16:09;14.40;99.90
24262;DHT22;12385;51.412;5.540;2023-04-29T20:18:35;14.30;99.90
24262;DHT22;12385;51.412;5.540;2023-04-29T20:21:01;14.20;99.90
24262;DHT22;12385;51.412;5.540;2023-04-29T20:23:27;14.20;99.90
24262;DHT22;12385;51.412;5.540;2023-04-29T20:25:53;14.10;99.90
24262;DHT22;12385;51.412;5.540;2023-04-29T20:28:18;14.10;99.90
24262;DHT22;12385;51.412;5.540;2023-04-29T20:30:45;14.00;99.90
24262;DHT22;12385;51.412;5.540;2023-04-29T20:33:10;13.90;99.90
24262;DHT22;12385;51.412;5.540;2023-04-29T20:35:36;13.90;99.90
24262;DHT22;12385;51.412;5.540;2023-04-29T20:38:01;13.80;99.90
24262;DHT22;12385;51.412;5.540;2023-04-29T20:40:27;13.70;99.90
24262;DHT22;12385;51.412;5.540;2023-04-29T20:42:56;13.70;99.90
24262;DHT22;12385;51.412;5.540;2023-04-29T20:45:22;13.60;99.90
24262;DHT22;12385;51.412;5.540;2023-04-29T20:47:47;13.60;99.90
24262;DHT22;12385;51.412;5.540;2023-04-29T20:50:13;13.50;99.90
24262;DHT22;12385;51.412;5.540;2023-04-29T20:52:39;13.50;99.90
24262;DHT22;12385;51.412;5.540;2023-04-29T20:55:06;13.50;99.90
24262;DHT22;12385;51.412;5.540;2023-04-29T20:57:31;13.50;99.90
24262;DHT22;12385;51.412;5.540;2023-04-29T20:59:58;13.50;99.90
24262;DHT22;12385;51.412;5.540;2023-04-29T21:02:24;13.50;99.90